Terminal Aerodrome Forecast
Issued by NWS Goodland, KS

Home | Current Version | Previous Version | Text Only | Print | Product List | Glossary On
Versions: 1 2 3 4 5 6 7 8 9 10 11 12 13
000
FTUS43 KGLD 041128 AAF
TAFGLD
TAF AMD
KGLD 041128Z 0411/0512 20006KT P6SM SKC
     FM041500 16010KT P6SM SCT250
     FM041900 16007KT P6SM VCTS BKN090CB
     FM042300 09008KT P6SM BKN250
     FM050400 15007KT P6SM SCT250
     FM050700 21007KT P6SM FEW250=

USA.gov is the U.S. government's official web portal to all federal, state and local government web resources and services.